Datum - Zeit
Döttingen
TemperaturTaupunktFeuchteSolar Wind aus
Richtung
Windböenaus
Richtung
Luftdruck
(QFF)
RegenRegen
Stärke
21.01.2022 - 00.00Uhr0.1 °C-1.8 °C87 %0.0 W/m²1.1 km/hWest-NW4.0 km/hWest-NW1031.6 hPa0.0 mm0.0 mm/h
21.01.2022 - 00.05Uhr-0.1 °C-1.8 °C88 %0.0 W/m²0.0 km/hWest-NW0.0 km/hNorden1031.5 hPa0.0 mm0.0 mm/h
21.01.2022 - 00.10Uhr-0.2 °C-2.0 °C88 %0.0 W/m²0.0 km/hWest-NW0.0 km/hNorden1031.6 hPa0.0 mm0.0 mm/h
21.01.2022 - 00.15Uhr-0.6 °C-2.2 °C88 %0.0 W/m²0.0 km/hWest-NW0.0 km/hNorden1031.6 hPa0.0 mm0.0 mm/h
21.01.2022 - 00.20Uhr-0.8 °C-2.4 °C89 %0.0 W/m²0.0 km/hWest-NW0.0 km/hNorden1031.6 hPa0.0 mm0.0 mm/h
21.01.2022 - 00.25Uhr-0.7 °C-2.3 °C89 %0.0 W/m²0.0 km/hWest-NW0.0 km/hNorden1031.8 hPa0.0 mm0.0 mm/h
21.01.2022 - 00.30Uhr-0.7 °C-2.3 °C89 %0.0 W/m²0.0 km/hWest-NW0.0 km/hNorden1031.8 hPa0.0 mm0.0 mm/h
21.01.2022 - 00.35Uhr-0.6 °C-2.2 °C89 %0.0 W/m²3.1 km/hWest-NW5.8 km/hWest-NW1031.9 hPa0.0 mm0.0 mm/h
21.01.2022 - 00.40Uhr-0.6 °C-2.0 °C90 %0.0 W/m²2.8 km/hWest-NW5.8 km/hWest-NW1032.0 hPa0.0 mm0.0 mm/h
21.01.2022 - 00.45Uhr-0.6 °C-2.2 °C89 %0.0 W/m²3.2 km/hWest-NW5.8 km/hWest-NW1032.0 hPa0.0 mm0.0 mm/h
21.01.2022 - 00.50Uhr-0.5 °C-2.1 °C89 %0.0 W/m²2.0 km/hWest-NW5.8 km/hWest-NW1032.0 hPa0.0 mm0.0 mm/h
21.01.2022 - 00.55Uhr-0.5 °C-2.0 °C89 %0.0 W/m²2.8 km/hWest-NW5.8 km/hWest-NW1032.0 hPa0.0 mm0.0 mm/h
21.01.2022 - 01.00Uhr-0.3 °C-1.9 °C89 %0.0 W/m²2.0 km/hWest-NW5.8 km/hWest-NW1032.0 hPa0.0 mm0.0 mm/h
21.01.2022 - 01.05Uhr-0.2 °C-1.9 °C88 %0.0 W/m²0.5 km/hWest-NW1.8 km/hWest-NW1032.0 hPa0.0 mm0.0 mm/h
21.01.2022 - 01.10Uhr-0.4 °C-2.1 °C88 %0.0 W/m²0.0 km/hWest-NW0.0 km/hNorden1031.9 hPa0.0 mm0.0 mm/h
21.01.2022 - 01.15Uhr-0.6 °C-2.2 °C89 %0.0 W/m²0.8 km/hWest-NW4.0 km/hWest-NW1032.0 hPa0.0 mm0.0 mm/h
21.01.2022 - 01.20Uhr-0.5 °C-2.1 °C89 %0.0 W/m²2.1 km/hWest-NW4.0 km/hWest-NW1032.0 hPa0.0 mm0.0 mm/h
21.01.2022 - 01.25Uhr-0.4 °C-2.0 °C89 %0.0 W/m²0.0 km/hWest-NW0.0 km/hNorden1032.0 hPa0.0 mm0.0 mm/h
21.01.2022 - 01.30Uhr-0.4 °C-2.0 °C89 %0.0 W/m²2.2 km/hWest-NW4.0 km/hWest-NW1032.1 hPa0.0 mm0.0 mm/h
21.01.2022 - 01.35Uhr-0.6 °C-2.2 °C89 %0.0 W/m²0.2 km/hWest-NW1.8 km/hWest-NW1032.0 hPa0.0 mm0.0 mm/h
21.01.2022 - 01.40Uhr-0.6 °C-2.2 °C89 %0.0 W/m²0.0 km/hWest-NW0.0 km/hNorden1032.0 hPa0.0 mm0.0 mm/h
21.01.2022 - 01.45Uhr-0.6 °C-2.1 °C89 %0.0 W/m²0.0 km/hWest-NW0.0 km/hNorden1032.1 hPa0.0 mm0.0 mm/h
21.01.2022 - 01.50Uhr-0.4 °C-2.0 °C89 %0.0 W/m²0.0 km/hWest-NW0.0 km/hNorden1032.0 hPa0.0 mm0.0 mm/h
21.01.2022 - 01.55Uhr-0.4 °C-1.8 °C90 %0.0 W/m²0.0 km/hWest-NW0.0 km/hNorden1032.1 hPa0.0 mm0.0 mm/h
21.01.2022 - 02.00Uhr-0.4 °C-2.0 °C89 %0.0 W/m²0.0 km/hWest-NW0.0 km/hNorden1032.2 hPa0.0 mm0.0 mm/h
21.01.2022 - 02.05Uhr-0.5 °C-2.1 °C89 %0.0 W/m²0.0 km/hWest-NW0.0 km/hNorden1032.0 hPa0.0 mm0.0 mm/h
21.01.2022 - 02.10Uhr-0.5 °C-2.1 °C89 %0.0 W/m²0.0 km/hWest-NW0.0 km/hNorden1032.0 hPa0.0 mm0.0 mm/h
21.01.2022 - 02.15Uhr-0.4 °C-1.8 °C90 %0.0 W/m²0.0 km/hWest-NW0.0 km/hNorden1032.0 hPa0.0 mm0.0 mm/h
21.01.2022 - 02.20Uhr-0.3 °C-1.8 °C90 %0.0 W/m²0.0 km/hWest-NW0.0 km/hNorden1032.0 hPa0.0 mm0.0 mm/h
21.01.2022 - 02.25Uhr-0.3 °C-1.7 °C90 %0.0 W/m²0.0 km/hWest-NW0.0 km/hNorden1031.9 hPa0.0 mm0.0 mm/h
21.01.2022 - 02.30Uhr-0.3 °C-1.7 °C90 %0.0 W/m²0.0 km/hWest-NW0.0 km/hNorden1031.9 hPa0.0 mm0.0 mm/h
21.01.2022 - 02.35Uhr-0.3 °C-1.7 °C90 %0.0 W/m²0.0 km/hWest-NW0.0 km/hNorden1032.0 hPa0.0 mm0.0 mm/h
21.01.2022 - 02.40Uhr-0.3 °C-1.7 °C90 %0.0 W/m²2.3 km/hWest-NW4.0 km/hWest-NW1032.1 hPa0.0 mm0.0 mm/h
21.01.2022 - 02.45Uhr-0.3 °C-1.7 °C90 %0.0 W/m²3.4 km/hWest-NW5.8 km/hWest-NW1032.1 hPa0.0 mm0.0 mm/h
21.01.2022 - 02.50Uhr-0.4 °C-1.8 °C90 %0.0 W/m²0.0 km/hWest-NW0.0 km/hNorden1032.1 hPa0.0 mm0.0 mm/h
21.01.2022 - 02.55Uhr-0.6 °C-1.9 °C90 %0.0 W/m²0.4 km/hWest-NW1.8 km/hWest-NW1032.1 hPa0.0 mm0.0 mm/h
21.01.2022 - 03.00Uhr-0.6 °C-2.0 °C90 %0.0 W/m²0.6 km/hWest-NW1.8 km/hWest-NW1032.1 hPa0.0 mm0.0 mm/h
21.01.2022 - 03.05Uhr-0.4 °C-1.8 °C90 %0.0 W/m²3.8 km/hWest-NW5.8 km/hWest-NW1032.0 hPa0.0 mm0.0 mm/h
21.01.2022 - 03.10Uhr-0.4 °C-1.8 °C90 %0.0 W/m²2.8 km/hWest-NW8.3 km/hWest-NW1032.0 hPa0.0 mm0.0 mm/h
21.01.2022 - 03.15Uhr-0.4 °C-1.8 °C90 %0.0 W/m²4.0 km/hWest-NW5.8 km/hWest-NW1032.0 hPa0.0 mm0.0 mm/h
21.01.2022 - 03.20Uhr-0.3 °C-1.7 °C90 %0.0 W/m²2.6 km/hWest-NW4.0 km/hWest-NW1032.0 hPa0.0 mm0.0 mm/h
21.01.2022 - 03.25Uhr-0.3 °C-1.7 °C90 %0.0 W/m²1.7 km/hWest-NW5.8 km/hWest-NW1032.0 hPa0.0 mm0.0 mm/h
21.01.2022 - 03.30Uhr-0.3 °C-1.7 °C90 %0.0 W/m²0.0 km/hWest-NW0.0 km/hNorden1032.0 hPa0.0 mm0.0 mm/h
21.01.2022 - 03.35Uhr-0.2 °C-1.6 °C90 %0.0 W/m²0.9 km/hWest-NW4.0 km/hWest-NW1032.1 hPa0.0 mm0.0 mm/h
21.01.2022 - 03.40Uhr-0.2 °C-1.8 °C89 %0.0 W/m²0.0 km/hWest-NW0.0 km/hNorden1032.1 hPa0.0 mm0.0 mm/h
21.01.2022 - 03.45Uhr-0.3 °C-1.8 °C90 %0.0 W/m²0.0 km/hWest-NW0.0 km/hNorden1032.0 hPa0.0 mm0.0 mm/h
21.01.2022 - 03.50Uhr-0.3 °C-1.7 °C90 %0.0 W/m²0.0 km/hWest-NW0.0 km/hNorden1032.0 hPa0.0 mm0.0 mm/h
21.01.2022 - 03.55Uhr-0.3 °C-1.7 °C90 %0.0 W/m²0.0 km/hWest-NW0.0 km/hNorden1032.0 hPa0.0 mm0.0 mm/h
21.01.2022 - 04.00Uhr-0.5 °C-1.9 °C90 %0.0 W/m²0.0 km/hWest-NW0.0 km/hNorden1032.0 hPa0.0 mm0.0 mm/h
21.01.2022 - 04.05Uhr-0.6 °C-2.0 °C90 %0.0 W/m²0.0 km/hWest-NW0.0 km/hNorden1032.0 hPa0.0 mm0.0 mm/h
21.01.2022 - 04.10Uhr-0.7 °C-2.1 °C90 %0.0 W/m²0.0 km/hWest-NW0.0 km/hNorden1031.9 hPa0.0 mm0.0 mm/h
21.01.2022 - 04.15Uhr-0.7 °C-2.0 °C90 %0.0 W/m²0.0 km/hWest-NW0.0 km/hNorden1031.9 hPa0.0 mm0.0 mm/h
21.01.2022 - 04.20Uhr-0.7 °C-2.1 °C90 %0.0 W/m²0.0 km/hWest-NW0.0 km/hNorden1031.9 hPa0.0 mm0.0 mm/h
21.01.2022 - 04.25Uhr-0.6 °C-2.0 °C90 %0.0 W/m²0.0 km/hWest-NW0.0 km/hNorden1031.9 hPa0.0 mm0.0 mm/h
21.01.2022 - 04.30Uhr-0.6 °C-2.0 °C90 %0.0 W/m²0.0 km/hWest-NW0.0 km/hNorden1032.0 hPa0.0 mm0.0 mm/h
21.01.2022 - 04.35Uhr-0.6 °C-2.2 °C89 %0.0 W/m²0.0 km/hWest-NW0.0 km/hNorden1032.0 hPa0.0 mm0.0 mm/h
21.01.2022 - 04.40Uhr-0.5 °C-2.1 °C89 %0.0 W/m²0.0 km/hWest-NW0.0 km/hNorden1032.0 hPa0.0 mm0.0 mm/h
21.01.2022 - 04.45Uhr-0.6 °C-2.2 °C89 %0.0 W/m²1.3 km/hWest-NW4.0 km/hWest-NW1032.1 hPa0.0 mm0.0 mm/h
21.01.2022 - 04.50Uhr-0.7 °C-2.1 °C90 %0.0 W/m²0.3 km/hWest-NW1.8 km/hWest-NW1032.1 hPa0.0 mm0.0 mm/h
21.01.2022 - 04.55Uhr-0.7 °C-2.1 °C90 %0.0 W/m²0.0 km/hWest-NW0.0 km/hNorden1032.1 hPa0.0 mm0.0 mm/h
21.01.2022 - 05.00Uhr-0.6 °C-2.1 °C89 %0.0 W/m²0.0 km/hWest-NW0.0 km/hNorden1032.1 hPa0.0 mm0.0 mm/h
21.01.2022 - 05.05Uhr-0.6 °C-2.1 °C90 %0.0 W/m²0.0 km/hWest-NW0.0 km/hNorden1032.0 hPa0.0 mm0.0 mm/h
21.01.2022 - 05.10Uhr-0.7 °C-2.1 °C90 %0.0 W/m²0.0 km/hWest-NW0.0 km/hNorden1032.0 hPa0.0 mm0.0 mm/h
21.01.2022 - 05.15Uhr-0.8 °C-2.2 °C90 %0.0 W/m²0.0 km/hWest-NW0.0 km/hNorden1032.0 hPa0.0 mm0.0 mm/h
21.01.2022 - 05.20Uhr-0.7 °C-2.1 °C90 %0.0 W/m²0.0 km/hWest-NW0.0 km/hNorden1032.0 hPa0.0 mm0.0 mm/h
21.01.2022 - 05.25Uhr-0.7 °C-2.1 °C90 %0.0 W/m²0.0 km/hWest-NW0.0 km/hNorden1032.0 hPa0.0 mm0.0 mm/h
21.01.2022 - 05.30Uhr-0.7 °C-2.1 °C90 %0.0 W/m²0.0 km/hWest-NW0.0 km/hNorden1032.0 hPa0.0 mm0.0 mm/h
21.01.2022 - 05.35Uhr-0.7 °C-2.1 °C90 %0.0 W/m²2.8 km/hWest-NW5.8 km/hWest-NW1032.0 hPa0.0 mm0.0 mm/h
21.01.2022 - 05.40Uhr-0.8 °C-2.2 °C90 %0.0 W/m²2.4 km/hWest-NW5.8 km/hWest-NW1031.9 hPa0.0 mm0.0 mm/h
21.01.2022 - 05.45Uhr-0.9 °C-2.3 °C90 %0.0 W/m²2.4 km/hWest-NW4.0 km/hWest-NW1031.9 hPa0.0 mm0.0 mm/h
21.01.2022 - 05.50Uhr-0.9 °C-2.3 °C90 %0.0 W/m²2.3 km/hWest-NW4.0 km/hWest-NW1032.0 hPa0.0 mm0.0 mm/h
21.01.2022 - 05.55Uhr-1.0 °C-2.4 °C90 %0.0 W/m²1.9 km/hWest-NW4.0 km/hWest-NW1032.1 hPa0.0 mm0.0 mm/h
21.01.2022 - 06.00Uhr-1.1 °C-2.5 °C90 %0.0 W/m²1.8 km/hWest-NW4.0 km/hWest-NW1032.2 hPa0.0 mm0.0 mm/h
21.01.2022 - 06.05Uhr-1.2 °C-2.6 °C90 %0.0 W/m²3.1 km/hWest-NW5.8 km/hWest-NW1032.3 hPa0.0 mm0.0 mm/h
21.01.2022 - 06.10Uhr-1.2 °C-2.6 °C90 %0.0 W/m²2.0 km/hWest-NW5.8 km/hWest-NW1032.3 hPa0.0 mm0.0 mm/h
21.01.2022 - 06.15Uhr-1.2 °C-2.6 °C90 %0.0 W/m²1.9 km/hWest-NW4.0 km/hWest-NW1032.3 hPa0.0 mm0.0 mm/h
21.01.2022 - 06.20Uhr-1.3 °C-2.7 °C90 %0.0 W/m²0.0 km/hWest-NW0.0 km/hNorden1032.3 hPa0.0 mm0.0 mm/h
21.01.2022 - 06.25Uhr-1.6 °C-3.0 °C90 %0.0 W/m²0.0 km/hWest-NW0.0 km/hNorden1032.3 hPa0.0 mm0.0 mm/h
21.01.2022 - 06.30Uhr-1.7 °C-3.1 °C90 %0.0 W/m²0.0 km/hWest-NW0.0 km/hNorden1032.3 hPa0.0 mm0.0 mm/h
21.01.2022 - 06.35Uhr-1.7 °C-3.1 °C90 %0.0 W/m²0.0 km/hWest-NW0.0 km/hNorden1032.3 hPa0.0 mm0.0 mm/h
21.01.2022 - 06.40Uhr-1.8 °C-3.2 °C90 %0.0 W/m²0.0 km/hWest-NW0.0 km/hNorden1032.4 hPa0.0 mm0.0 mm/h
21.01.2022 - 06.45Uhr-1.9 °C-3.3 °C90 %0.0 W/m²0.0 km/hWest-NW0.0 km/hNorden1032.4 hPa0.0 mm0.0 mm/h
21.01.2022 - 06.50Uhr-1.9 °C-3.3 °C90 %0.0 W/m²1.7 km/hWest-NW4.0 km/hWest-NW1032.5 hPa0.0 mm0.0 mm/h
21.01.2022 - 06.55Uhr-1.8 °C-3.2 °C90 %0.0 W/m²2.2 km/hWest-NW4.0 km/hWest-NW1032.5 hPa0.0 mm0.0 mm/h
21.01.2022 - 07.00Uhr-1.8 °C-3.2 °C90 %0.0 W/m²1.3 km/hWest-NW4.0 km/hWest-NW1032.6 hPa0.0 mm0.0 mm/h
21.01.2022 - 07.05Uhr-1.8 °C-3.3 °C90 %0.0 W/m²1.5 km/hWest-NW4.0 km/hWest-NW1032.7 hPa0.0 mm0.0 mm/h
21.01.2022 - 07.10Uhr-1.8 °C-3.2 °C90 %0.0 W/m²1.1 km/hWest-NW4.0 km/hWest-NW1032.7 hPa0.0 mm0.0 mm/h
21.01.2022 - 07.15Uhr-1.9 °C-3.3 °C90 %0.0 W/m²1.8 km/hWest-NW4.0 km/hWest-NW1032.8 hPa0.0 mm0.0 mm/h
21.01.2022 - 07.20Uhr-2.1 °C-3.5 °C90 %0.0 W/m²0.9 km/hWest-NW4.0 km/hWest-NW1032.9 hPa0.0 mm0.0 mm/h
21.01.2022 - 07.25Uhr-2.1 °C-3.5 °C90 %0.0 W/m²3.0 km/hWest-NW5.8 km/hWest-NW1033.0 hPa0.0 mm0.0 mm/h
21.01.2022 - 07.30Uhr-1.9 °C-3.3 °C90 %0.0 W/m²2.2 km/hWest-NW5.8 km/hWest-NW1033.0 hPa0.0 mm0.0 mm/h
21.01.2022 - 07.35Uhr-1.9 °C-3.4 °C90 %0.0 W/m²0.0 km/hWest-NW0.0 km/hNorden1033.1 hPa0.0 mm0.0 mm/h
21.01.2022 - 07.40Uhr-1.9 °C-3.3 °C90 %0.0 W/m²0.0 km/hWest-NW0.0 km/hNorden1033.1 hPa0.0 mm0.0 mm/h
21.01.2022 - 07.45Uhr-2.1 °C-3.5 °C90 %0.0 W/m²0.0 km/hWest-NW0.0 km/hNorden1033.2 hPa0.0 mm0.0 mm/h
21.01.2022 - 07.50Uhr-2.2 °C-3.6 °C90 %0.0 W/m²0.0 km/hWest-NW0.0 km/hNorden1033.3 hPa0.0 mm0.0 mm/h
21.01.2022 - 07.55Uhr-2.3 °C-3.7 °C90 %0.0 W/m²0.0 km/hWest-NW0.0 km/hNorden1033.4 hPa0.0 mm0.0 mm/h
21.01.2022 - 08.00Uhr-2.3 °C-3.7 °C90 %0.0 W/m²0.0 km/hWest-NW0.0 km/hNorden1033.5 hPa0.0 mm0.0 mm/h
21.01.2022 - 08.05Uhr-2.2 °C-3.7 °C90 %5.0 W/m²0.0 km/hWest-NW0.0 km/hNorden1033.6 hPa0.0 mm0.0 mm/h
21.01.2022 - 08.10Uhr-2.2 °C-3.8 °C89 %7.0 W/m²0.0 km/hWest-NW0.0 km/hNorden1033.8 hPa0.0 mm0.0 mm/h
21.01.2022 - 08.15Uhr-2.2 °C-3.7 °C90 %9.0 W/m²0.0 km/hWest-NW0.0 km/hNorden1033.9 hPa0.0 mm0.0 mm/h
21.01.2022 - 08.20Uhr-2.2 °C-3.7 °C89 %12.0 W/m²0.0 km/hWest-NW0.0 km/hNorden1033.8 hPa0.0 mm0.0 mm/h
21.01.2022 - 08.25Uhr-2.1 °C-3.6 °C90 %14.0 W/m²0.0 km/hWest-NW0.0 km/hNorden1034.0 hPa0.0 mm0.0 mm/h
21.01.2022 - 08.30Uhr-1.9 °C-3.5 °C89 %19.0 W/m²0.0 km/hWest-NW0.0 km/hNorden1034.0 hPa0.0 mm0.0 mm/h
21.01.2022 - 08.35Uhr-1.9 °C-3.5 °C89 %23.0 W/m²0.0 km/hWest-NW0.0 km/hNorden1033.9 hPa0.0 mm0.0 mm/h
21.01.2022 - 08.40Uhr-1.8 °C-3.4 °C89 %26.0 W/m²0.0 km/hWest-NW0.0 km/hNorden1033.9 hPa0.0 mm0.0 mm/h
21.01.2022 - 08.45Uhr-1.8 °C-3.4 °C89 %35.0 W/m²0.0 km/hWest-NW0.0 km/hNorden1033.9 hPa0.0 mm0.0 mm/h
21.01.2022 - 08.50Uhr-1.7 °C-3.2 °C90 %39.0 W/m²0.0 km/hWest-NW0.0 km/hNorden1034.0 hPa0.0 mm0.0 mm/h
21.01.2022 - 08.55Uhr-1.8 °C-3.2 °C90 %46.0 W/m²0.0 km/hWest-NW0.0 km/hNorden1034.0 hPa0.0 mm0.0 mm/h
21.01.2022 - 09.00Uhr-1.6 °C-3.2 °C89 %46.0 W/m²0.0 km/hWest-NW0.0 km/hNorden1033.8 hPa0.0 mm0.0 mm/h
21.01.2022 - 09.05Uhr-1.4 °C-3.0 °C89 %51.0 W/m²0.0 km/hWest-NW0.0 km/hNorden1033.8 hPa0.0 mm0.0 mm/h
21.01.2022 - 09.10Uhr-1.3 °C-2.9 °C89 %58.0 W/m²0.0 km/hWest-NW0.0 km/hNorden1033.7 hPa0.0 mm0.0 mm/h
21.01.2022 - 09.15Uhr-1.3 °C-2.9 °C89 %58.0 W/m²0.9 km/hWest-NW4.0 km/hWest-NW1033.8 hPa0.0 mm0.0 mm/h
21.01.2022 - 09.20Uhr-1.4 °C-3.0 °C89 %54.0 W/m²0.0 km/hWest-NW0.0 km/hNorden1033.8 hPa0.0 mm0.0 mm/h